createdAt,value
2022-12-08T00:01:26.584Z,100441.47
2022-12-08T00:03:59.930Z,100437.97
2022-12-08T00:06:49.491Z,100434.41
2022-12-08T00:09:25.981Z,100439.63
2022-12-08T00:11:56.888Z,100432.88
2022-12-08T00:14:27.789Z,100431.63
2022-12-08T00:16:56.301Z,100436.44
2022-12-08T00:19:25.225Z,100433.50
2022-12-08T00:21:55.583Z,100435.72
2022-12-08T00:24:24.983Z,100438.13
2022-12-08T00:26:54.306Z,100429.00
2022-12-08T00:29:23.688Z,100439.44
2022-12-08T00:31:51.743Z,100422.16
2022-12-08T00:34:20.256Z,100418.50
2022-12-08T00:36:49.317Z,100412.66
2022-12-08T00:39:20.186Z,100417.34
2022-12-08T00:42:05.654Z,100406.78
2022-12-08T00:44:34.267Z,100411.59
2022-12-08T00:47:02.339Z,100410.78
2022-12-08T00:49:30.582Z,100407.16
2022-12-08T00:51:59.227Z,100413.22
2022-12-08T00:54:28.856Z,100411.34
2022-12-08T00:56:57.227Z,100408.38
2022-12-08T00:59:26.745Z,100406.59
2022-12-08T01:01:54.788Z,100408.97
2022-12-08T01:04:24.362Z,100399.38
2022-12-08T01:06:53.449Z,100406.56
2022-12-08T01:09:21.651Z,100396.25
2022-12-08T01:11:51.289Z,100404.00
2022-12-08T01:14:19.314Z,100407.81
2022-12-08T01:16:49.325Z,100403.75
2022-12-08T01:19:17.508Z,100402.59
2022-12-08T01:21:50.480Z,100397.56
2022-12-08T01:24:20.869Z,100400.81
2022-12-08T01:26:52.472Z,100399.34
2022-12-08T01:29:21.380Z,100401.97
2022-12-08T01:31:51.013Z,100388.16
2022-12-08T01:34:20.922Z,100388.56
2022-12-08T01:36:49.575Z,100387.53
2022-12-08T01:39:19.614Z,100390.16
2022-12-08T01:41:49.193Z,100390.25
2022-12-08T01:44:57.863Z,100383.13
2022-12-08T01:47:29.292Z,100379.97
2022-12-08T01:49:57.283Z,100381.44
2022-12-08T01:52:30.885Z,100377.78
2022-12-08T01:55:02.407Z,100369.91
2022-12-08T01:57:33.341Z,100367.19
2022-12-08T02:00:10.137Z,100361.31
2022-12-08T02:02:46.697Z,100355.34
2022-12-08T02:05:15.600Z,100363.28
2022-12-08T02:07:44.626Z,100347.88
2022-12-08T02:10:15.963Z,100354.13
2022-12-08T02:12:44.487Z,100347.34
2022-12-08T02:15:15.164Z,100349.78
2022-12-08T02:17:54.760Z,100346.63
2022-12-08T02:20:34.607Z,100347.63
2022-12-08T02:23:09.446Z,100336.94
2022-12-08T02:25:54.452Z,100339.53
2022-12-08T02:28:38.244Z,100330.75
2022-12-08T02:31:15.080Z,100329.63
2022-12-08T02:34:12.322Z,100329.47
2022-12-08T02:36:47.947Z,100332.63
2022-12-08T02:39:26.209Z,100331.69
2022-12-08T02:42:03.962Z,100323.13
2022-12-08T02:44:34.576Z,100320.41
2022-12-08T02:47:07.464Z,100321.25
2022-12-08T02:49:39.977Z,100311.09
2022-12-08T02:52:26.049Z,100306.72
2022-12-08T02:54:56.399Z,100306.38
2022-12-08T02:57:31.836Z,100298.97
2022-12-08T03:00:09.254Z,100302.41
2022-12-08T03:02:44.795Z,100294.69
2022-12-08T03:05:23.748Z,100285.91
2022-12-08T03:07:57.929Z,100279.59
2022-12-08T03:10:31.921Z,100285.47
2022-12-08T03:13:04.040Z,100280.97
2022-12-08T03:15:34.133Z,100278.03
2022-12-08T03:18:02.308Z,100273.06
2022-12-08T03:20:32.278Z,100270.09
2022-12-08T03:23:03.402Z,100271.50
2022-12-08T03:25:38.470Z,100273.78
2022-12-08T03:28:10.666Z,100269.53
2022-12-08T03:30:40.992Z,100273.72
2022-12-08T03:33:17.224Z,100275.63
2022-12-08T03:35:47.544Z,100269.81
2022-12-08T03:38:18.751Z,100267.09
2022-12-08T03:41:12.118Z,100254.13
2022-12-08T03:43:41.416Z,100250.94
2022-12-08T03:46:09.400Z,100247.59
2022-12-08T03:48:38.504Z,100245.81
2022-12-08T03:51:08.034Z,100242.41
2022-12-08T03:53:36.365Z,100240.84
2022-12-08T03:56:05.710Z,100239.25
2022-12-08T03:58:37.657Z,100236.66
2022-12-08T04:01:06.482Z,100237.31
2022-12-08T04:03:34.896Z,100231.63
2022-12-08T04:06:03.491Z,100227.13
2022-12-08T04:08:32.807Z,100226.72
2022-12-08T04:11:01.888Z,100216.44
2022-12-08T04:13:31.631Z,100223.38
2022-12-08T04:16:00.781Z,100216.25
2022-12-08T04:18:28.840Z,100216.66
2022-12-08T04:20:57.360Z,100211.94
2022-12-08T04:23:25.835Z,100207.88
2022-12-08T04:25:55.427Z,100210.91
2022-12-08T04:28:23.681Z,100213.31
2022-12-08T04:30:52.057Z,100218.53
2022-12-08T04:33:20.047Z,100217.50
2022-12-08T04:35:48.200Z,100208.16
2022-12-08T04:38:19.818Z,100214.69
2022-12-08T04:40:47.828Z,100212.91
2022-12-08T04:43:18.161Z,100207.22
2022-12-08T04:45:47.283Z,100201.78
2022-12-08T04:48:15.759Z,100212.28
2022-12-08T04:50:47.005Z,100203.66
2022-12-08T04:53:15.348Z,100201.03
2022-12-08T04:55:48.490Z,100194.06
2022-12-08T04:58:22.068Z,100200.31
2022-12-08T05:00:53.355Z,100186.94
2022-12-08T05:03:28.574Z,100196.47
2022-12-08T05:05:57.309Z,100197.41
2022-12-08T05:08:25.615Z,100195.63
2022-12-08T05:10:53.768Z,100190.41
2022-12-08T05:13:23.280Z,100188.81
2022-12-08T05:15:51.619Z,100184.97
2022-12-08T05:18:20.004Z,100196.06
2022-12-08T05:20:48.103Z,100183.59
2022-12-08T05:23:17.536Z,100188.72
2022-12-08T05:25:46.481Z,100192.09
2022-12-08T05:28:40.094Z,100193.44
2022-12-08T05:31:04.880Z,100190.19
2022-12-08T05:33:35.280Z,100184.13
2022-12-08T05:36:03.880Z,100192.19
2022-12-08T05:38:34.711Z,100184.25
2022-12-08T05:41:04.357Z,100188.19
2022-12-08T05:43:34.088Z,100180.56
2022-12-08T05:46:02.434Z,100186.53
2022-12-08T05:48:32.355Z,100179.19
2022-12-08T05:51:01.023Z,100183.50
2022-12-08T05:53:29.502Z,100177.13
2022-12-08T05:55:57.728Z,100182.75
2022-12-08T05:58:25.884Z,100178.28
2022-12-08T06:00:53.888Z,100178.28
2022-12-08T06:03:22.316Z,100177.72
2022-12-08T06:05:53.280Z,100182.31
2022-12-08T06:08:21.799Z,100174.56
2022-12-08T06:10:52.511Z,100175.50
2022-12-08T06:13:21.904Z,100168.38
2022-12-08T06:15:52.742Z,100174.47
2022-12-08T06:18:29.656Z,100180.34
2022-12-08T06:21:06.522Z,100165.75
2022-12-08T06:23:35.003Z,100158.97
2022-12-08T06:26:04.233Z,100163.78
2022-12-08T06:28:36.018Z,100166.09
2022-12-08T06:31:10.179Z,100167.75
2022-12-08T06:33:38.840Z,100166.47
2022-12-08T06:36:10.964Z,100176.06
2022-12-08T06:38:43.356Z,100167.75
2022-12-08T06:41:17.564Z,100176.25
2022-12-08T06:43:47.121Z,100172.50
2022-12-08T06:46:18.696Z,100162.78
2022-12-08T06:48:48.616Z,100167.31
2022-12-08T06:51:19.802Z,100166.78
2022-12-08T06:53:48.404Z,100167.00
2022-12-08T06:56:19.881Z,100170.25
2022-12-08T06:58:52.464Z,100179.06
2022-12-08T07:01:21.216Z,100167.63
2022-12-08T07:03:49.696Z,100171.72
2022-12-08T07:06:23.642Z,100179.88
2022-12-08T07:08:52.096Z,100181.13
2022-12-08T07:11:22.795Z,100174.13
2022-12-08T07:13:51.602Z,100183.97
2022-12-08T07:16:19.833Z,100181.94
2022-12-08T07:18:47.870Z,100186.44
2022-12-08T07:21:16.592Z,100181.53
2022-12-08T07:23:54.234Z,100191.06
2022-12-08T07:26:24.468Z,100187.72
2022-12-08T07:28:52.873Z,100181.13
2022-12-08T07:31:25.702Z,100180.16
2022-12-08T07:33:54.199Z,100191.25
2022-12-08T07:36:23.245Z,100186.03
2022-12-08T07:38:53.351Z,100188.25
2022-12-08T07:41:23.706Z,100186.03
2022-12-08T07:43:53.402Z,100178.16
2022-12-08T07:46:24.036Z,100179.41
2022-12-08T07:48:52.890Z,100180.97
2022-12-08T07:51:21.113Z,100179.91
2022-12-08T07:53:54.084Z,100178.84
2022-12-08T07:56:24.691Z,100177.06
2022-12-08T07:58:54.402Z,100178.75
2022-12-08T08:01:26.310Z,100179.75
2022-12-08T08:03:56.426Z,100187.63
2022-12-08T08:06:25.255Z,100188.47
2022-12-08T08:08:53.350Z,100188.09
2022-12-08T08:11:25.469Z,100195.28
2022-12-08T08:13:54.996Z,100189.59
2022-12-08T08:16:23.634Z,100187.91
2022-12-08T08:18:52.498Z,100196.59
2022-12-08T08:21:44.274Z,100197.00
2022-12-08T08:24:10.956Z,100200.97
2022-12-08T08:26:39.235Z,100199.69
2022-12-08T08:29:09.805Z,100198.00
2022-12-08T08:31:40.102Z,100191.78
2022-12-08T08:34:09.324Z,100198.56
2022-12-08T08:36:40.234Z,100186.53
2022-12-08T08:39:09.911Z,100194.84
2022-12-08T08:41:38.816Z,100192.50
2022-12-08T08:44:08.425Z,100184.63
2022-12-08T08:46:37.072Z,100192.03
2022-12-08T08:49:07.031Z,100189.22
2022-12-08T08:51:35.343Z,100187.97
2022-12-08T08:54:03.954Z,100197.16
2022-12-08T08:56:32.032Z,100190.59
2022-12-08T08:59:00.521Z,100196.78
2022-12-08T09:01:35.180Z,100192.31
2022-12-08T09:04:04.596Z,100181.88
2022-12-08T09:06:33.176Z,100185.72
2022-12-08T09:09:01.421Z,100177.38
2022-12-08T09:11:30.847Z,100185.66
2022-12-08T09:14:00.343Z,100176.31
2022-12-08T09:16:33.355Z,100173.63
2022-12-08T09:19:03.965Z,100170.94
2022-12-08T09:21:36.583Z,100160.13
2022-12-08T09:24:07.020Z,100166.63
2022-12-08T09:26:35.934Z,100170.56
2022-12-08T09:29:05.226Z,100167.22
2022-12-08T09:31:35.749Z,100155.63
2022-12-08T09:34:06.560Z,100161.25
2022-12-08T09:36:37.237Z,100159.06
2022-12-08T09:39:08.013Z,100158.34
2022-12-08T09:41:44.805Z,100158.22
2022-12-08T09:44:43.459Z,100155.72
2022-12-08T09:47:19.815Z,100152.16
2022-12-08T09:49:57.879Z,100153.97
2022-12-08T09:52:29.551Z,100154.31
2022-12-08T09:55:00.529Z,100155.41
2022-12-08T09:57:32.044Z,100149.06
2022-12-08T10:00:04.570Z,100143.38
2022-12-08T10:02:38.944Z,100148.63
2022-12-08T10:05:09.033Z,100146.00
2022-12-08T10:07:42.664Z,100143.38
2022-12-08T10:10:21.100Z,100141.47
2022-12-08T10:12:54.792Z,100139.91
2022-12-08T10:15:43.255Z,100132.38
2022-12-08T10:18:16.665Z,100138.38
2022-12-08T10:20:47.600Z,100137.53
2022-12-08T10:23:24.171Z,100142.66
2022-12-08T10:25:57.566Z,100138.72
2022-12-08T10:28:25.734Z,100137.75
2022-12-08T10:30:55.093Z,100131.78
2022-12-08T10:33:24.992Z,100124.50
2022-12-08T10:35:56.264Z,100124.94
2022-12-08T10:38:28.141Z,100124.03
2022-12-08T10:41:02.803Z,100117.56
2022-12-08T10:43:32.360Z,100120.81
2022-12-08T10:46:10.413Z,100111.84
2022-12-08T10:48:49.036Z,100112.69
2022-12-08T10:51:24.737Z,100114.00
2022-12-08T10:53:53.848Z,100118.91
2022-12-08T10:56:26.758Z,100103.72
2022-12-08T10:59:14.637Z,100114.72
2022-12-08T11:01:49.888Z,100111.59
2022-12-08T11:04:22.703Z,100114.00
2022-12-08T11:06:52.961Z,100106.63
2022-12-08T11:09:49.802Z,100104.44
2022-12-08T11:12:19.861Z,100100.41
2022-12-08T11:14:52.064Z,100104.94
2022-12-08T11:17:27.266Z,100097.28
2022-12-08T11:20:03.793Z,100095.88
2022-12-08T11:22:37.040Z,100093.81
2022-12-08T11:25:14.195Z,100094.16
2022-12-08T11:27:46.024Z,100099.78
2022-12-08T11:30:18.139Z,100101.06
2022-12-08T11:32:52.244Z,100092.72
2022-12-08T11:35:25.460Z,100089.59
2022-12-08T11:38:03.356Z,100096.28
2022-12-08T11:40:45.604Z,100088.06
2022-12-08T11:43:17.688Z,100085.31
2022-12-08T11:45:46.229Z,100091.53
2022-12-08T11:48:20.077Z,100085.31
2022-12-08T11:50:54.267Z,100093.06
2022-12-08T11:53:29.107Z,100094.41
2022-12-08T11:55:59.798Z,100096.81
2022-12-08T11:58:30.599Z,100094.19
2022-12-08T12:00:59.719Z,100096.00
2022-12-08T12:03:32.550Z,100091.19
2022-12-08T12:06:24.261Z,100092.25
2022-12-08T12:09:11.917Z,100101.31
2022-12-08T12:12:04.736Z,100100.38
2022-12-08T12:14:55.064Z,100089.03
2022-12-08T12:17:36.206Z,100094.06
2022-12-08T12:20:14.323Z,100093.47
2022-12-08T12:22:46.044Z,100095.84
2022-12-08T12:25:19.427Z,100097.41
2022-12-08T12:27:51.230Z,100095.13
2022-12-08T12:30:34.315Z,100095.59
2022-12-08T12:33:03.968Z,100094.88
2022-12-08T12:35:36.066Z,100098.00
2022-12-08T12:38:28.643Z,100100.41
2022-12-08T12:41:05.972Z,100094.41
2022-12-08T12:43:38.187Z,100095.38
2022-12-08T12:46:42.019Z,100090.47
2022-12-08T12:49:48.744Z,100084.03
2022-12-08T12:52:44.643Z,100083.09
2022-12-08T12:55:29.809Z,100087.72
2022-12-08T12:57:59.544Z,100084.38
2022-12-08T13:00:29.734Z,100084.75
2022-12-08T13:02:59.819Z,100093.25
2022-12-08T13:05:30.454Z,100091.31
2022-12-08T13:08:01.386Z,100088.13
2022-12-08T13:10:37.127Z,100087.59
2022-12-08T13:13:17.683Z,100089.88
2022-12-08T13:15:52.436Z,100087.00
2022-12-08T13:18:26.331Z,100075.09
2022-12-08T13:21:05.109Z,100079.13
2022-12-08T13:23:48.125Z,100083.88
2022-12-08T13:26:20.911Z,100086.28
2022-12-08T13:29:19.682Z,100087.09
2022-12-08T13:31:52.155Z,100093.06
2022-12-08T13:34:23.525Z,100087.72
2022-12-08T13:36:58.859Z,100077.72
2022-12-08T13:39:33.163Z,100086.53
2022-12-08T13:42:08.952Z,100092.16
2022-12-08T13:47:35.067Z,100094.84
2022-12-08T13:58:40.790Z,100095.69
2022-12-08T14:01:15.491Z,100094.97
2022-12-08T14:04:21.695Z,100093.06
2022-12-08T14:06:40.539Z,100090.94
2022-12-08T14:09:12.172Z,100098.94
2022-12-08T14:11:42.433Z,100100.59
2022-12-08T14:14:32.781Z,100107.84
2022-12-08T14:17:10.545Z,100103.72
2022-12-08T14:19:39.113Z,100105.47
2022-12-08T14:22:12.134Z,100098.94
2022-12-08T14:24:40.855Z,100103.94
2022-12-08T14:27:12.801Z,100104.91
2022-12-08T14:29:45.141Z,100098.22
2022-12-08T14:32:25.955Z,100105.63
2022-12-08T14:34:55.530Z,100104.44
2022-12-08T14:37:26.656Z,100107.13
2022-12-08T14:39:59.207Z,100103.56
2022-12-08T14:42:28.781Z,100107.78
2022-12-08T14:45:00.932Z,100107.25
2022-12-08T14:47:35.530Z,100103.44
2022-12-08T14:50:06.888Z,100110.28
2022-12-08T14:52:35.175Z,100107.06
2022-12-08T14:55:08.837Z,100114.09
2022-12-08T14:57:37.590Z,100116.69
2022-12-08T15:00:20.384Z,100113.13
2022-12-08T15:02:49.795Z,100120.78
2022-12-08T15:05:21.074Z,100120.66
2022-12-08T15:07:54.165Z,100119.22
2022-12-08T15:10:27.248Z,100123.28
2022-12-08T15:13:08.906Z,100127.59
2022-12-08T15:15:58.842Z,100131.13
2022-12-08T15:18:36.669Z,100126.88
2022-12-08T15:21:06.773Z,100122.53
2022-12-08T15:23:42.651Z,100124.91
2022-12-08T15:26:20.897Z,100125.84
2022-12-08T15:28:49.291Z,100123.59
2022-12-08T15:31:19.186Z,100127.66
2022-12-08T15:33:49.190Z,100123.13
2022-12-08T15:36:19.276Z,100131.13
2022-12-08T15:38:54.502Z,100136.34
2022-12-08T15:41:23.803Z,100144.00
2022-12-08T15:43:53.378Z,100145.41
2022-12-08T15:46:24.177Z,100152.34
2022-12-08T15:48:57.905Z,100144.81
2022-12-08T15:51:29.688Z,100149.97
2022-12-08T15:54:10.681Z,100139.69
2022-12-08T15:57:10.482Z,100142.44
2022-12-08T15:59:33.245Z,100143.41
2022-12-08T16:02:06.079Z,100147.94
2022-12-08T16:07:28.512Z,100150.63
2022-12-08T16:10:00.192Z,100144.53
2022-12-08T16:13:54.887Z,100144.88
2022-12-08T16:15:53.437Z,100150.59
2022-12-08T16:18:28.733Z,100152.97
2022-12-08T16:21:31.565Z,100152.41
2022-12-08T16:23:47.637Z,100156.22
2022-12-08T16:29:06.007Z,100160.28
2022-12-08T16:31:36.420Z,100163.19
2022-12-08T16:34:06.114Z,100162.13
2022-12-08T16:36:34.605Z,100169.78
2022-12-08T16:39:03.464Z,100162.13
2022-12-08T16:41:53.279Z,100159.09
2022-12-08T16:44:21.943Z,100166.34
2022-12-08T16:46:50.180Z,100168.00
2022-12-08T16:49:20.266Z,100173.69
2022-12-08T16:51:51.194Z,100174.69
2022-12-08T16:54:20.950Z,100164.44
2022-12-08T16:56:51.852Z,100160.84
2022-12-08T16:59:20.201Z,100163.91
2022-12-08T17:01:48.694Z,100168.22
2022-12-08T17:04:31.412Z,100165.63
2022-12-08T17:07:00.334Z,100166.44
2022-12-08T17:09:30.753Z,100176.19
2022-12-08T17:12:03.753Z,100178.72
2022-12-08T17:14:35.400Z,100174.25
2022-12-08T17:17:03.762Z,100172.59
2022-12-08T17:19:33.512Z,100172.47
2022-12-08T17:22:04.114Z,100178.53
2022-12-08T17:24:33.083Z,100178.44
2022-12-08T17:27:04.223Z,100176.88
2022-12-08T17:29:32.899Z,100180.44
2022-12-08T17:32:01.081Z,100182.84
2022-12-08T17:34:29.375Z,100187.91
2022-12-08T17:36:58.749Z,100188.13
2022-12-08T17:39:27.940Z,100188.84
2022-12-08T17:41:56.065Z,100186.75
2022-12-08T17:44:27.995Z,100192.41
2022-12-08T17:46:58.075Z,100182.94
2022-12-08T17:49:29.593Z,100185.72
2022-12-08T17:52:01.091Z,100182.63
2022-12-08T17:54:30.113Z,100189.59
2022-12-08T17:56:59.432Z,100194.28
2022-12-08T17:59:28.950Z,100193.09
2022-12-08T18:01:59.720Z,100192.66
2022-12-08T18:04:29.213Z,100191.13
2022-12-08T18:07:03.455Z,100198.75
2022-12-08T18:09:32.720Z,100196.59
2022-12-08T18:12:02.041Z,100200.03
2022-12-08T18:14:30.063Z,100199.59
2022-12-08T18:16:58.182Z,100199.81
2022-12-08T18:19:26.519Z,100201.81
2022-12-08T18:21:55.333Z,100200.03
2022-12-08T18:24:25.950Z,100205.06
2022-12-08T18:26:55.352Z,100193.75
2022-12-08T18:29:26.569Z,100201.91
2022-12-08T18:31:57.114Z,100193.94
2022-12-08T18:34:26.975Z,100192.38
2022-12-08T18:37:20.998Z,100204.00
2022-12-08T18:39:51.895Z,100214.28
2022-12-08T18:42:24.638Z,100210.72
2022-12-08T18:44:53.579Z,100205.41
2022-12-08T18:47:26.909Z,100208.97
2022-12-08T18:49:55.130Z,100208.03
2022-12-08T18:52:29.606Z,100212.03
2022-12-08T18:55:09.511Z,100215.38
2022-12-08T18:57:39.312Z,100216.09
2022-12-08T19:00:09.642Z,100221.69
2022-12-08T19:02:38.882Z,100227.66
2022-12-08T19:05:09.608Z,100218.75
2022-12-08T19:07:39.489Z,100231.84
2022-12-08T19:10:14.143Z,100228.09
2022-12-08T19:12:45.248Z,100235.75
2022-12-08T19:15:13.615Z,100241.81
2022-12-08T19:17:42.981Z,100245.50
2022-12-08T19:20:12.056Z,100250.91
2022-12-08T19:22:40.189Z,100247.13
2022-12-08T19:25:13.535Z,100247.44
2022-12-08T19:27:42.245Z,100252.28
2022-12-08T19:30:12.139Z,100259.72
2022-12-08T19:32:40.535Z,100262.53
2022-12-08T19:35:09.892Z,100266.94
2022-12-08T19:37:38.275Z,100263.28
2022-12-08T19:40:25.866Z,100265.19
2022-12-08T19:43:14.095Z,100263.28
2022-12-08T19:45:42.886Z,100262.78
2022-12-08T19:48:14.965Z,100272.72
2022-12-08T19:50:42.951Z,100268.84
2022-12-08T19:53:12.821Z,100269.69
2022-12-08T19:55:43.260Z,100275.75
2022-12-08T19:58:13.887Z,100265.06
2022-12-08T20:00:42.522Z,100278.28
2022-12-08T20:03:14.575Z,100273.66
2022-12-08T20:05:43.102Z,100274.19
2022-12-08T20:08:13.367Z,100269.06
2022-12-08T20:10:43.125Z,100274.84
2022-12-08T20:13:38.851Z,100275.25
2022-12-08T20:16:09.948Z,100280.69
2022-12-08T20:18:38.920Z,100278.91
2022-12-08T20:21:14.940Z,100279.22
2022-12-08T20:23:45.433Z,100277.56
2022-12-08T20:26:14.299Z,100281.22
2022-12-08T20:28:44.534Z,100274.50
2022-12-08T20:31:19.287Z,100270.50
2022-12-08T20:33:49.689Z,100277.44
2022-12-08T20:36:20.138Z,100275.53
2022-12-08T20:38:48.750Z,100275.75
2022-12-08T20:41:17.585Z,100283.09
2022-12-08T20:43:48.933Z,100293.94
2022-12-08T20:46:18.693Z,100295.53
2022-12-08T20:48:47.509Z,100291.22
2022-12-08T20:51:17.743Z,100294.78
2022-12-08T20:53:48.996Z,100299.38
2022-12-08T20:56:19.677Z,100300.44
2022-12-08T20:58:50.161Z,100302.31
2022-12-08T21:01:21.654Z,100296.66
2022-12-08T21:03:52.734Z,100299.06
2022-12-08T21:06:25.361Z,100314.03
2022-12-08T21:09:00.735Z,100309.91
2022-12-08T21:11:29.208Z,100306.56
2022-12-08T21:14:00.056Z,100319.75
2022-12-08T21:16:29.985Z,100313.16
2022-12-08T21:18:59.490Z,100311.47
2022-12-08T21:21:27.467Z,100317.97
2022-12-08T21:24:02.880Z,100319.75
2022-12-08T21:26:32.469Z,100315.88
2022-12-08T21:29:02.058Z,100322.03
2022-12-08T21:31:32.768Z,100318.75
2022-12-08T21:34:02.823Z,100319.41
2022-12-08T21:36:34.763Z,100316.13
2022-12-08T21:39:10.902Z,100317.84
2022-12-08T21:42:01.619Z,100322.13
2022-12-08T21:44:41.095Z,100325.50
2022-12-08T21:47:12.185Z,100328.47
2022-12-08T21:49:45.084Z,100334.66
2022-12-08T21:52:25.099Z,100331.28
2022-12-08T21:54:57.804Z,100333.91
2022-12-08T21:57:27.862Z,100330.47
2022-12-08T22:00:00.085Z,100335.59
2022-12-08T22:02:29.382Z,100342.59
2022-12-08T22:04:58.858Z,100332.88
2022-12-08T22:07:27.974Z,100338.22
2022-12-08T22:10:00.290Z,100340.81
2022-12-08T22:12:28.806Z,100339.16
2022-12-08T22:14:59.191Z,100333.28
2022-12-08T22:17:27.409Z,100343.00
2022-12-08T22:19:56.584Z,100342.69
2022-12-08T22:22:25.013Z,100340.69
2022-12-08T22:24:55.037Z,100341.06
2022-12-08T22:27:23.310Z,100351.31
2022-12-08T22:29:55.678Z,100342.84
2022-12-08T22:32:25.564Z,100340.31
2022-12-08T22:34:57.911Z,100340.31
2022-12-08T22:37:26.821Z,100338.75
2022-12-08T22:39:56.381Z,100333.72
2022-12-08T22:42:24.683Z,100338.09
2022-12-08T22:44:53.778Z,100344.28
2022-12-08T22:47:21.911Z,100340.16
2022-12-08T22:49:51.352Z,100349.59
2022-12-08T22:52:19.513Z,100341.84
2022-12-08T22:54:47.801Z,100336.63
2022-12-08T22:57:16.955Z,100343.69
2022-12-08T22:59:46.232Z,100354.00
2022-12-08T23:02:16.063Z,100341.84
2022-12-08T23:04:46.373Z,100350.81
2022-12-08T23:07:16.479Z,100344.81
2022-12-08T23:09:44.564Z,100340.75
2022-12-08T23:12:13.630Z,100337.38
2022-12-08T23:14:44.563Z,100339.47
2022-12-08T23:17:12.684Z,100338.88
2022-12-08T23:19:41.873Z,100341.28
2022-12-08T23:22:10.559Z,100338.13
2022-12-08T23:24:43.754Z,100331.22
2022-12-08T23:27:12.944Z,100328.81
2022-12-08T23:29:41.754Z,100330.19
2022-12-08T23:32:09.887Z,100325.63
2022-12-08T23:34:38.032Z,100325.81
2022-12-08T23:37:07.699Z,100328.63
2022-12-08T23:39:37.405Z,100334.59
2022-12-08T23:42:08.723Z,100334.38
2022-12-08T23:44:37.172Z,100338.63
2022-12-08T23:47:13.330Z,100332.50
2022-12-08T23:49:42.131Z,100324.78
2022-12-08T23:52:15.099Z,100334.13
2022-12-08T23:54:44.468Z,100331.22
2022-12-08T23:57:13.976Z,100329.34
2022-12-08T23:59:45.442Z,100327.03
